Terminal Aerodrome Forecast
Issued by NWS Wilmington, OH

Current Version | Previous Version | Graphics & Text | Print | Product List | Glossary On
Versions: 1 2 3 4 5 6 7 8 9 10 11 12 13 14 15 16 17 18 19 20 21 22 23 24 25 26
000
FTUS41 KILN 261740
TAFCVG
TAF
KCVG 261740Z 2618/2724 20008KT P6SM SKC
     FM262300 20006KT P6SM SCT120 BKN200
     FM270900 17005KT P6SM OVC035
      TEMPO 2711/2714 5SM -RA OVC020
     FM271400 17008KT 5SM -RA BKN015 OVC040
     FM271700 18008KT P6SM VCSH BKN020 OVC040=

USA.gov is the U.S. government's official web portal to all federal, state and local government web resources and services.